Terminal Aerodrome Forecast
Issued by NWS

Home | Current Version | Previous Version | Text Only | Print | Product List | Glossary On
Versions: 1 2 3 4 5 6 7 8 9 10 11 12 13 14 15
000
FTPA31 PHFO 161904 AAA
TAFSTU
TAF AMD
NSTU 161904Z 1619/1718 VRB06KT P6SM VCSH SCT015 BKN040 BKN100
      TEMPO 1619/1621 2SM SHRA BR SCT005 BKN012 OVC035
     FM170300 12008KT P6SM VCTS SCT012CB BKN035 OVC090=

USA.gov is the U.S. government's official web portal to all federal, state and local government web resources and services.